Albany, New York
Traffic Map
Current Weather Conditions
Albany, New York
Overcast Light Snow
Overcast
-11°
Feels Like: -18°
Wind Chill: -18° Ceiling: 7000
Heat Index: -11° Visibility: 8mi
Dew Point: -18° Wind: 10mph
Humidity: 59% Direction: 20° (NNE)
Pressure: 29.84in Gusts: 0mph
Raw Report DataKALB 272251Z 02009KT 8SM -SN FEW029 SCT039 OVC070 M11/M18 A2984 RMK AO2 SLP112 PCPN VRY LGT P0000 T11111178
Traffic Incident Summary
Active as of:
Severity:
Category:
InformationThere was an issue retrieving the traffic information for this location. Please try a different location or try again shortly.
Advertisements
Track Severe Weather on mobile